Time;durP1;ratioP1;P1;durP2;ratioP2;P2;SDS_P1;SDS_P2;PMS_P1;PMS_P2;Temp;Humidity;BMP_temperature;BMP_pressure;BME280_temperature;BME280_humidity;BME280_pressure;Samples;Min_cycle;Max_cycle;Signal;HPM_P1;HPM_P2
2022/03/08 00:01:31;;;;;;;6.87;5.33;;;0.20;49.20;;;;;;6234447;28;20182;-60
2022/03/08 00:04:31;;;;;;;8.50;6.07;;;0.50;48.70;;;;;;6215344;28;20221;-59
2022/03/08 00:07:32;;;;;;;9.30;6.00;;;0.60;48.90;;;;;;6210394;28;20417;-60
2022/03/08 00:10:33;;;;;;;9.13;6.47;;;0.70;48.50;;;;;;6210219;28;20192;-60
2022/03/08 00:13:34;;;;;;;7.50;5.87;;;0.80;48.20;;;;;;6210213;28;20195;-60
2022/03/08 00:16:35;;;;;;;8.00;6.10;;;0.80;48.80;;;;;;6240650;28;20270;-60
2022/03/08 00:19:36;;;;;;;7.97;6.37;;;0.60;48.90;;;;;;6225846;28;20616;-60
2022/03/08 00:22:37;;;;;;;7.60;5.87;;;0.60;49.10;;;;;;6222212;28;20201;-59
2022/03/08 00:25:38;;;;;;;7.17;5.60;;;0.60;48.70;;;;;;6243663;28;20197;-60
2022/03/08 00:28:39;;;;;;;8.83;6.00;;;0.60;48.80;;;;;;6250180;28;20186;-59
2022/03/08 00:31:41;;;;;;;9.07;5.83;;;0.60;48.90;;;;;;6239443;28;20340;-60
2022/03/08 00:34:42;;;;;;;9.03;6.20;;;0.50;49.40;;;;;;6226423;28;20384;-60
2022/03/08 00:37:44;;;;;;;6.63;5.70;;;0.40;49.30;;;;;;6224725;28;20234;-60
2022/03/08 00:40:45;;;;;;;8.47;5.50;;;0.40;50.10;;;;;;6225288;28;20183;-60
2022/03/08 00:43:46;;;;;;;7.97;5.83;;;0.30;50.90;;;;;;6208144;28;20199;-60
2022/03/08 00:46:47;;;;;;;6.47;5.47;;;0.20;51.10;;;;;;6223340;28;20191;-60
2022/03/08 00:49:48;;;;;;;7.53;5.73;;;0.20;51.20;;;;;;6232344;28;20199;-60
2022/03/08 00:52:51;;;;;;;8.43;5.07;;;0.10;51.60;;;;;;6233439;28;20193;-60
2022/03/08 00:55:52;;;;;;;9.10;5.87;;;0.00;51.90;;;;;;6249446;28;20221;-60
2022/03/08 00:58:53;;;;;;;7.53;5.73;;;0.00;51.90;;;;;;6216891;28;20220;-60
2022/03/08 01:01:54;;;;;;;10.77;6.33;;;0.00;52.50;;;;;;6249792;28;20197;-60
2022/03/08 01:04:54;;;;;;;6.63;5.23;;;0.00;52.90;;;;;;6232914;28;20187;-59
2022/03/08 01:07:55;;;;;;;5.97;5.33;;;0.20;53.20;;;;;;6226134;28;20194;-59
2022/03/08 01:10:56;;;;;;;8.70;6.47;;;0.20;53.40;;;;;;6249388;28;20194;-59
2022/03/08 01:13:58;;;;;;;8.37;6.80;;;0.30;53.30;;;;;;6225717;28;20314;-60
2022/03/08 01:16:59;;;;;;;7.27;5.90;;;0.30;53.50;;;;;;6208723;28;20217;-60
2022/03/08 01:20:00;;;;;;;6.73;6.03;;;0.40;53.40;;;;;;6208240;28;20243;-60
2022/03/08 01:23:01;;;;;;;8.30;5.93;;;0.50;53.20;;;;;;6208841;28;20191;-60
2022/03/08 01:26:02;;;;;;;9.43;6.20;;;0.60;53.00;;;;;;6245431;28;20191;-60
2022/03/08 01:29:03;;;;;;;8.10;6.53;;;0.50;53.10;;;;;;6216783;28;20191;-60
2022/03/08 01:32:06;;;;;;;9.63;6.87;;;0.60;53.40;;;;;;6216189;28;20286;-59
2022/03/08 01:35:08;;;;;;;11.17;5.70;;;0.50;53.30;;;;;;6232389;28;20200;-60
2022/03/08 01:38:09;;;;;;;6.67;5.67;;;0.50;53.50;;;;;;6223254;28;20217;-60
2022/03/08 01:41:10;;;;;;;7.23;5.73;;;0.50;54.10;;;;;;6231458;28;20225;-60
2022/03/08 01:44:11;;;;;;;9.33;6.07;;;0.40;54.40;;;;;;6249346;28;20209;-60
2022/03/08 01:47:13;;;;;;;7.67;5.87;;;0.40;54.30;;;;;;6249526;28;20295;-60
2022/03/08 01:50:15;;;;;;;7.57;5.90;;;0.40;54.10;;;;;;6210231;28;20751;-60
2022/03/08 01:53:16;;;;;;;7.17;5.90;;;0.50;53.90;;;;;;6224438;28;20195;-59
2022/03/08 01:56:17;;;;;;;10.07;6.20;;;0.60;53.90;;;;;;6208289;28;20190;-59
2022/03/08 01:59:18;;;;;;;8.30;5.90;;;0.70;54.40;;;;;;6247487;28;20217;-60
2022/03/08 02:02:19;;;;;;;7.50;6.00;;;0.80;53.80;;;;;;6222615;28;20201;-60
2022/03/08 02:05:20;;;;;;;7.10;5.27;;;0.80;53.80;;;;;;6224661;28;20210;-60
2022/03/08 02:08:21;;;;;;;8.53;6.07;;;0.80;53.60;;;;;;6240665;28;20194;-60
2022/03/08 02:11:23;;;;;;;6.70;5.83;;;0.80;53.50;;;;;;6207977;28;20201;-58
2022/03/08 02:14:26;;;;;;;9.40;6.00;;;0.80;53.20;;;;;;6224556;28;20229;-59
2022/03/08 02:17:27;;;;;;;7.47;5.40;;;0.70;53.00;;;;;;6219423;28;20191;-59
2022/03/08 02:20:28;;;;;;;7.57;5.80;;;0.70;53.30;;;;;;6231892;28;20241;-60
2022/03/08 02:23:29;;;;;;;8.40;6.17;;;0.70;53.50;;;;;;6231952;28;20187;-60
2022/03/08 02:26:31;;;;;;;8.30;6.63;;;0.60;53.40;;;;;;6218722;28;20293;-60
2022/03/08 02:29:32;;;;;;;9.13;6.50;;;0.60;53.20;;;;;;6231591;28;20205;-60
2022/03/08 02:32:33;;;;;;;8.97;6.23;;;0.70;53.20;;;;;;6231794;28;20194;-60
2022/03/08 02:35:33;;;;;;;7.40;6.27;;;0.80;53.00;;;;;;6232220;28;20195;-60
2022/03/08 02:38:34;;;;;;;9.63;6.73;;;0.70;53.10;;;;;;6231376;28;20226;-60
2022/03/08 02:41:35;;;;;;;9.93;6.43;;;0.70;53.00;;;;;;6231493;28;20273;-60
2022/03/08 02:44:36;;;;;;;10.67;6.83;;;0.70;53.00;;;;;;6231673;28;20189;-60
2022/03/08 02:47:37;;;;;;;10.40;7.07;;;0.70;53.10;;;;;;6232318;28;20193;-60
2022/03/08 02:50:38;;;;;;;10.37;7.20;;;0.70;53.10;;;;;;6248132;28;20192;-60
2022/03/08 02:53:39;;;;;;;8.83;7.07;;;0.70;53.20;;;;;;6231681;28;20208;-60
2022/03/08 02:56:40;;;;;;;8.20;6.00;;;0.60;53.30;;;;;;6231281;28;20197;-60
2022/03/08 02:59:40;;;;;;;7.03;6.33;;;0.60;53.40;;;;;;6231738;28;20223;-60
2022/03/08 03:02:41;;;;;;;10.23;6.60;;;0.60;53.50;;;;;;6218471;28;20195;-60
2022/03/08 03:05:42;;;;;;;9.33;6.53;;;0.50;53.60;;;;;;6211781;28;20179;-60
2022/03/08 03:08:43;;;;;;;9.10;6.27;;;0.40;53.70;;;;;;6227807;28;20191;-60
2022/03/08 03:11:44;;;;;;;9.77;7.10;;;0.50;53.50;;;;;;6224638;28;20205;-60
2022/03/08 03:14:45;;;;;;;7.37;6.03;;;0.50;53.70;;;;;;6237654;28;20195;-60
2022/03/08 03:17:46;;;;;;;9.00;6.93;;;0.40;53.50;;;;;;6208290;28;20203;-59
2022/03/08 03:20:47;;;;;;;8.67;5.83;;;0.50;53.60;;;;;;6233844;28;20318;-59
2022/03/08 03:23:48;;;;;;;8.47;6.63;;;0.40;53.90;;;;;;6224424;28;20194;-60
2022/03/08 03:26:49;;;;;;;8.87;6.93;;;0.40;53.90;;;;;;6252514;28;20245;-59
2022/03/08 03:29:50;;;;;;;9.03;7.27;;;0.40;53.80;;;;;;6243049;28;20202;-59
2022/03/08 03:32:51;;;;;;;8.27;6.40;;;0.40;53.60;;;;;;6231786;28;20201;-60
2022/03/08 03:35:52;;;;;;;6.83;5.70;;;0.40;53.50;;;;;;6235522;28;20187;-59
2022/03/08 03:38:53;;;;;;;9.53;7.17;;;0.40;53.50;;;;;;6250494;28;20268;-60
2022/03/08 03:41:54;;;;;;;8.03;6.17;;;0.30;54.00;;;;;;6242680;28;20193;-59
2022/03/08 03:44:54;;;;;;;9.63;6.30;;;0.30;54.40;;;;;;6227112;28;20184;-59
2022/03/08 03:47:55;;;;;;;9.27;6.67;;;0.20;54.40;;;;;;6214927;28;20642;-60
2022/03/08 03:50:56;;;;;;;7.30;5.60;;;0.10;54.80;;;;;;6226971;28;20192;-60
2022/03/08 03:53:57;;;;;;;7.27;6.13;;;0.10;55.00;;;;;;6214743;28;20194;-60
2022/03/08 03:56:58;;;;;;;7.90;6.23;;;0.10;55.00;;;;;;6235145;28;20254;-60
2022/03/08 03:59:59;;;;;;;7.30;6.27;;;0.00;55.20;;;;;;6251016;28;20221;-60
2022/03/08 04:03:00;;;;;;;8.57;6.33;;;0.00;55.50;;;;;;6250864;28;20193;-60
2022/03/08 04:06:01;;;;;;;8.63;6.43;;;0.00;55.10;;;;;;6231838;28;20229;-60
2022/03/08 04:09:03;;;;;;;8.87;6.50;;;0.00;55.20;;;;;;6234664;28;20201;-60
2022/03/08 04:12:05;;;;;;;9.50;6.30;;;-3276.70;55.30;;;;;;6233738;28;20202;-60
2022/03/08 04:15:06;;;;;;;9.10;6.43;;;-3276.70;55.50;;;;;;6250857;28;20191;-60
2022/03/08 04:18:07;;;;;;;8.97;6.53;;;-3276.70;55.50;;;;;;6250973;28;20210;-59
2022/03/08 04:21:08;;;;;;;9.10;7.30;;;-3276.70;55.80;;;;;;6233707;28;20234;-60
2022/03/08 04:24:09;;;;;;;9.37;6.40;;;0.00;55.50;;;;;;6234311;28;20191;-60
2022/03/08 04:27:10;;;;;;;8.33;5.97;;;0.00;54.90;;;;;;6233346;28;20191;-59
2022/03/08 04:30:11;;;;;;;7.97;6.07;;;0.00;54.70;;;;;;6232784;28;20206;-60
2022/03/08 04:33:11;;;;;;;7.67;6.40;;;0.00;55.10;;;;;;6232872;28;20191;-60
2022/03/08 04:36:12;;;;;;;7.90;6.63;;;0.00;55.00;;;;;;6232454;28;20310;-60
2022/03/08 04:39:13;;;;;;;9.00;5.93;;;0.00;55.00;;;;;;6250563;28;20211;-60
2022/03/08 04:42:14;;;;;;;8.30;6.57;;;-3276.70;55.00;;;;;;6238412;28;20208;-59
2022/03/08 04:45:15;;;;;;;8.17;6.07;;;-3276.70;55.20;;;;;;6216012;28;20194;-60
2022/03/08 04:48:16;;;;;;;7.77;6.53;;;-3276.70;55.20;;;;;;6233761;28;20191;-60
2022/03/08 04:51:17;;;;;;;10.07;6.73;;;0.00;55.00;;;;;;6233300;28;20276;-59
2022/03/08 04:54:18;;;;;;;9.37;6.60;;;-3276.70;55.00;;;;;;6234083;28;20182;-60
2022/03/08 04:57:19;;;;;;;9.33;6.80;;;-3276.70;55.20;;;;;;6245272;28;20198;-60
2022/03/08 05:00:20;;;;;;;9.07;6.47;;;-3276.70;55.20;;;;;;6233274;28;20297;-60
2022/03/08 05:03:21;;;;;;;11.03;6.77;;;-3276.70;55.40;;;;;;6265901;28;20198;-60
2022/03/08 05:06:22;;;;;;;11.37;7.23;;;0.00;55.30;;;;;;6233131;28;20200;-59
2022/03/08 05:09:23;;;;;;;8.10;6.60;;;0.00;54.70;;;;;;6233096;28;20190;-59
2022/03/08 05:12:24;;;;;;;8.97;6.43;;;0.00;54.90;;;;;;6221059;28;20191;-60
2022/03/08 05:15:24;;;;;;;10.10;6.47;;;0.00;55.00;;;;;;6208888;28;20205;-59
2022/03/08 05:18:25;;;;;;;11.33;7.00;;;0.10;55.00;;;;;;6212315;28;20319;-60
2022/03/08 05:21:26;;;;;;;9.63;6.50;;;0.00;55.00;;;;;;6224680;28;20263;-60
2022/03/08 05:24:27;;;;;;;14.63;7.83;;;0.00;55.20;;;;;;6240335;28;20206;-60
2022/03/08 05:27:28;;;;;;;14.47;7.93;;;0.00;55.00;;;;;;6246049;28;20187;-60
2022/03/08 05:30:29;;;;;;;10.10;7.13;;;-3276.70;55.10;;;;;;6210853;28;20198;-60
2022/03/08 05:33:30;;;;;;;9.17;6.77;;;-3276.70;55.30;;;;;;6237044;28;20215;-60
2022/03/08 05:36:31;;;;;;;9.60;6.73;;;-3276.70;55.50;;;;;;6238585;28;20243;-61
2022/03/08 05:39:32;;;;;;;9.27;6.73;;;-3276.60;55.50;;;;;;6220534;28;20210;-63
2022/03/08 05:42:33;;;;;;;9.60;6.50;;;-3276.60;55.70;;;;;;6235310;28;20190;-63
2022/03/08 05:45:34;;;;;;;11.13;7.40;;;-3276.60;56.00;;;;;;6233813;28;20187;-63
2022/03/08 05:48:35;;;;;;;9.37;6.97;;;-3276.70;55.70;;;;;;6236412;28;20199;-61
2022/03/08 05:51:36;;;;;;;10.43;7.00;;;-3276.70;55.30;;;;;;6250830;28;20205;-62
2022/03/08 05:54:37;;;;;;;10.40;7.23;;;-3276.70;55.20;;;;;;6236574;28;20206;-62
2022/03/08 05:57:38;;;;;;;10.27;7.03;;;-3276.60;55.50;;;;;;6249234;28;20194;-62
2022/03/08 06:00:39;;;;;;;13.00;7.17;;;-3276.60;55.70;;;;;;6235364;28;20346;-62
2022/03/08 06:03:39;;;;;;;11.87;6.70;;;-3276.50;55.90;;;;;;6257791;28;20188;-63
2022/03/08 06:06:40;;;;;;;9.27;6.97;;;-3276.60;55.60;;;;;;6241230;28;20225;-62
2022/03/08 06:09:41;;;;;;;9.33;6.53;;;-3276.70;55.90;;;;;;6232076;28;20194;-62
2022/03/08 06:12:45;;;;;;;8.17;6.93;;;-3276.70;55.30;;;;;;6238096;28;20212;-61
2022/03/08 06:15:46;;;;;;;8.20;6.33;;;0.00;55.10;;;;;;6228863;28;20221;-62
2022/03/08 06:18:47;;;;;;;11.60;7.33;;;0.00;54.60;;;;;;6242420;28;20279;-62
2022/03/08 06:21:47;;;;;;;9.67;6.83;;;0.00;54.50;;;;;;6245200;28;20244;-63
2022/03/08 06:24:48;;;;;;;11.60;7.13;;;0.00;54.60;;;;;;6229208;28;20198;-63
2022/03/08 06:27:49;;;;;;;10.27;7.00;;;0.10;54.20;;;;;;6231848;28;20194;-62
2022/03/08 06:30:50;;;;;;;9.73;7.37;;;0.20;54.00;;;;;;6248488;28;20224;-62
2022/03/08 06:33:51;;;;;;;9.23;6.70;;;0.20;53.60;;;;;;6270290;28;20237;-62
2022/03/08 06:36:52;;;;;;;9.30;6.83;;;0.20;53.60;;;;;;6266665;28;20279;-62
2022/03/08 06:39:52;;;;;;;7.03;5.47;;;0.30;53.10;;;;;;6234789;28;20264;-62
2022/03/08 06:42:53;;;;;;;8.80;6.53;;;0.30;53.40;;;;;;6248237;28;20195;-62
2022/03/08 06:45:54;;;;;;;9.87;6.43;;;0.30;53.40;;;;;;6248944;28;20190;-62
2022/03/08 06:48:55;;;;;;;8.80;6.10;;;0.30;53.20;;;;;;6247192;28;20237;-62
2022/03/08 06:51:56;;;;;;;9.70;6.07;;;0.40;52.60;;;;;;6275881;28;20209;-62
2022/03/08 06:54:57;;;;;;;8.83;6.77;;;0.50;52.90;;;;;;6244930;28;20280;-61
2022/03/08 06:57:57;;;;;;;7.93;6.13;;;0.50;52.60;;;;;;6230260;28;20206;-62
2022/03/08 07:00:58;;;;;;;9.30;6.40;;;0.50;52.60;;;;;;6248374;28;20201;-62
2022/03/08 07:03:59;;;;;;;12.20;7.00;;;0.50;52.90;;;;;;6243553;28;20190;-61
2022/03/08 07:07:00;;;;;;;8.23;6.40;;;0.60;52.40;;;;;;6240648;28;20190;-62
2022/03/08 07:10:01;;;;;;;9.07;6.20;;;0.80;51.10;;;;;;6257617;28;20204;-62
2022/03/08 07:13:02;;;;;;;8.83;6.53;;;1.00;50.90;;;;;;6247999;28;20215;-61
2022/03/08 07:16:04;;;;;;;8.87;6.27;;;1.10;50.90;;;;;;6248736;28;20199;-62
2022/03/08 07:19:05;;;;;;;8.93;6.43;;;1.30;51.50;;;;;;6240471;28;20246;-63
2022/03/08 07:22:06;;;;;;;8.03;6.27;;;1.40;50.80;;;;;;6243136;28;20240;-63
2022/03/08 07:25:08;;;;;;;9.43;6.07;;;1.60;50.40;;;;;;6242083;28;20206;-63
2022/03/08 07:28:09;;;;;;;7.60;5.23;;;1.90;48.40;;;;;;6249102;28;20270;-62
2022/03/08 07:31:12;;;;;;;7.53;5.33;;;2.30;46.20;;;;;;6268535;28;20182;-62
2022/03/08 07:34:14;;;;;;;9.60;5.30;;;2.60;45.60;;;;;;6228587;28;20187;-63
2022/03/08 07:37:15;;;;;;;6.77;5.30;;;2.70;45.00;;;;;;6242118;28;20256;-60
2022/03/08 07:40:16;;;;;;;6.83;5.30;;;2.90;44.20;;;;;;6205285;28;20222;-62
2022/03/08 07:43:17;;;;;;;6.57;5.13;;;2.80;44.30;;;;;;6236538;28;20199;-62
2022/03/08 07:46:17;;;;;;;6.93;4.90;;;2.90;43.70;;;;;;6250220;28;20206;-61
2022/03/08 07:49:18;;;;;;;6.70;5.30;;;3.00;44.00;;;;;;6241513;28;20206;-61
2022/03/08 07:52:19;;;;;;;7.00;4.70;;;3.10;43.60;;;;;;6247512;28;20195;-62
2022/03/08 07:55:20;;;;;;;5.80;4.57;;;3.30;42.90;;;;;;6266624;28;20203;-63
2022/03/08 07:58:21;;;;;;;8.07;4.67;;;3.30;43.00;;;;;;6238082;28;20293;-62
2022/03/08 08:01:22;;;;;;;6.20;4.63;;;3.20;43.20;;;;;;6234771;28;20239;-62
2022/03/08 08:04:23;;;;;;;6.47;4.63;;;3.30;43.00;;;;;;6243734;28;20190;-62
2022/03/08 08:07:24;;;;;;;7.03;5.57;;;3.30;42.80;;;;;;6250446;28;20197;-63
2022/03/08 08:10:25;;;;;;;7.63;5.00;;;3.40;42.50;;;;;;6239139;28;20426;-62
2022/03/08 08:13:26;;;;;;;8.53;5.27;;;3.50;42.30;;;;;;6231501;28;20203;-62
2022/03/08 08:16:27;;;;;;;6.93;5.03;;;3.60;42.50;;;;;;6259494;28;20288;-63
2022/03/08 08:19:28;;;;;;;5.77;4.93;;;3.60;42.80;;;;;;6242522;28;20224;-61
2022/03/08 08:22:29;;;;;;;9.20;5.00;;;3.60;42.20;;;;;;6268084;28;20198;-61
2022/03/08 08:25:30;;;;;;;6.50;4.67;;;3.80;42.20;;;;;;6256468;28;20328;-58
2022/03/08 08:28:30;;;;;;;5.73;4.40;;;3.90;42.20;;;;;;6225769;28;20202;-58
2022/03/08 08:31:32;;;;;;;5.97;4.33;;;4.10;42.00;;;;;;6225767;28;20202;-56
2022/03/08 08:34:33;;;;;;;6.00;4.40;;;4.20;41.40;;;;;;6238847;28;20201;-61
2022/03/08 08:37:34;;;;;;;7.43;4.57;;;4.10;41.40;;;;;;6225715;28;20229;-61
2022/03/08 08:40:35;;;;;;;5.90;3.97;;;4.00;41.50;;;;;;6231631;28;20222;-61
2022/03/08 08:43:36;;;;;;;10.57;5.13;;;4.20;41.50;;;;;;6241594;28;20188;-61
2022/03/08 08:46:37;;;;;;;6.63;4.80;;;4.50;41.10;;;;;;6245759;28;20194;-61
2022/03/08 08:49:38;;;;;;;6.70;4.27;;;4.60;41.10;;;;;;6240137;28;20198;-61
2022/03/08 08:52:38;;;;;;;7.00;4.53;;;4.70;40.90;;;;;;6233495;28;20249;-60
2022/03/08 08:55:39;;;;;;;4.33;3.57;;;4.80;41.20;;;;;;6245352;28;20206;-61
2022/03/08 08:58:40;;;;;;;6.13;4.93;;;5.00;39.70;;;;;;6224328;28;20218;-60
2022/03/08 09:01:41;;;;;;;3.80;3.30;;;5.10;39.80;;;;;;6221421;28;20193;-60
2022/03/08 09:04:42;;;;;;;4.53;2.60;;;5.30;38.10;;;;;;6229533;28;20191;-59
2022/03/08 09:07:43;;;;;;;2.30;1.90;;;5.30;36.80;;;;;;6260489;28;20261;-60
2022/03/08 09:10:44;;;;;;;3.67;2.20;;;5.50;35.70;;;;;;6224954;28;20198;-60
2022/03/08 09:13:44;;;;;;;4.13;2.53;;;5.50;35.30;;;;;;6213821;28;20455;-60
2022/03/08 09:16:45;;;;;;;3.87;2.40;;;5.60;36.10;;;;;;6223082;28;20289;-60
2022/03/08 09:19:46;;;;;;;3.70;2.30;;;5.50;35.20;;;;;;6235702;28;20246;-60
2022/03/08 09:22:47;;;;;;;2.90;2.10;;;5.30;34.70;;;;;;6238321;28;20237;-60
2022/03/08 09:25:48;;;;;;;4.47;2.40;;;5.10;35.80;;;;;;6231244;28;20237;-61
2022/03/08 09:28:49;;;;;;;3.00;2.70;;;5.10;35.80;;;;;;6216542;28;20191;-61
2022/03/08 09:31:52;;;;;;;4.37;3.23;;;5.30;36.40;;;;;;6265715;28;20262;-60
2022/03/08 09:34:53;;;;;;;4.20;3.10;;;5.40;37.10;;;;;;6238651;28;20199;-61
2022/03/08 09:37:55;;;;;;;4.07;3.27;;;5.50;36.40;;;;;;6232263;28;20243;-61
2022/03/08 09:40:56;;;;;;;3.57;3.10;;;5.70;36.00;;;;;;6242442;28;20195;-61
2022/03/08 09:43:59;;;;;;;4.20;2.83;;;5.80;35.70;;;;;;6224820;28;20191;-61
2022/03/08 09:47:00;;;;;;;3.93;2.83;;;6.00;35.60;;;;;;6243873;28;20263;-60
2022/03/08 09:50:01;;;;;;;3.30;2.57;;;6.10;35.10;;;;;;6240206;28;20251;-60
2022/03/08 09:53:04;;;;;;;5.47;3.80;;;6.30;35.10;;;;;;6223598;28;20287;-61
2022/03/08 09:56:05;;;;;;;5.23;3.23;;;6.40;35.20;;;;;;6240368;28;20631;-61
2022/03/08 09:59:06;;;;;;;4.30;3.20;;;6.20;35.70;;;;;;6215764;28;20221;-61
2022/03/08 10:02:07;;;;;;;3.57;3.27;;;5.80;35.20;;;;;;6232310;28;20182;-60
2022/03/08 10:05:08;;;;;;;7.27;3.30;;;5.90;35.00;;;;;;6215587;28;20182;-60
2022/03/08 10:08:18;;;;;;;3.67;3.00;;;5.90;35.40;;;;;;6213488;28;20198;-61
2022/03/08 10:11:19;;;;;;;4.93;3.50;;;6.10;35.70;;;;;;6244174;28;20196;-61
2022/03/08 10:14:37;;;;;;;5.40;2.90;;;6.30;35.40;;;;;;6227034;28;20186;-62
2022/03/08 10:17:40;;;;;;;4.47;3.00;;;6.40;35.30;;;;;;6240217;28;20229;-61
2022/03/08 10:20:41;;;;;;;5.67;3.30;;;6.50;34.50;;;;;;6233181;28;20230;-61
2022/03/08 10:23:42;;;;;;;4.47;3.33;;;6.60;35.10;;;;;;6220448;28;20186;-61
2022/03/08 10:26:50;;;;;;;5.60;3.37;;;6.60;34.80;;;;;;6237064;28;20460;-61
2022/03/08 10:29:59;;;;;;;8.07;3.83;;;6.50;34.40;;;;;;6252558;28;20204;-63
2022/03/08 10:33:00;;;;;;;3.20;2.90;;;6.10;34.90;;;;;;6253047;28;20218;-61
2022/03/08 10:36:01;;;;;;;4.53;3.17;;;6.10;35.30;;;;;;6235927;28;20225;-62
2022/03/08 10:39:09;;;;;;;3.53;2.90;;;6.10;35.50;;;;;;6235091;28;20217;-61
2022/03/08 10:42:10;;;;;;;4.17;2.67;;;6.10;35.00;;;;;;6252667;28;20186;-63
2022/03/08 10:45:16;;;;;;;9.33;3.67;;;6.30;34.40;;;;;;6238500;28;20185;-63
2022/03/08 10:48:18;;;;;;;5.43;3.23;;;6.40;34.90;;;;;;6252738;28;20179;-62
2022/03/08 10:51:19;;;;;;;4.77;2.93;;;6.30;34.20;;;;;;6227276;28;20201;-62
2022/03/08 10:54:20;;;;;;;4.17;2.80;;;6.30;34.70;;;;;;6244088;28;20214;-62
2022/03/08 10:57:21;;;;;;;4.20;2.80;;;6.40;34.40;;;;;;6246057;28;20213;-62
2022/03/08 11:00:31;;;;;;;4.13;2.57;;;6.60;33.80;;;;;;6243098;28;20220;-62
2022/03/08 11:03:32;;;;;;;4.10;2.70;;;6.90;34.00;;;;;;6239001;28;20369;-62
2022/03/08 11:06:33;;;;;;;3.90;2.73;;;7.70;33.50;;;;;;6228008;28;20201;-62
2022/03/08 11:09:35;;;;;;;4.80;3.33;;;8.00;32.10;;;;;;6232125;28;20202;-62
2022/03/08 11:12:37;;;;;;;3.93;2.93;;;8.20;31.50;;;;;;6225200;28;20199;-62
2022/03/08 11:15:40;;;;;;;3.13;2.83;;;8.00;32.00;;;;;;6243089;28;20209;-62
2022/03/08 11:18:47;;;;;;;4.17;2.70;;;8.00;32.40;;;;;;6244814;28;20229;-62
2022/03/08 11:21:50;;;;;;;2.67;2.43;;;8.10;31.70;;;;;;6225287;28;20304;-62
2022/03/08 11:24:53;;;;;;;3.27;2.70;;;8.00;31.60;;;;;;6254295;28;20190;-62
2022/03/08 11:27:54;;;;;;;3.20;2.40;;;7.80;31.00;;;;;;6242459;28;20205;-60
2022/03/08 11:30:58;;;;;;;4.57;2.53;;;8.40;30.70;;;;;;6217163;28;20280;-64
2022/03/08 11:34:10;;;;;;;4.90;2.40;;;8.50;30.50;;;;;;6221250;28;20195;-65
2022/03/08 11:37:23;;;;;;;4.30;3.17;;;8.80;30.80;;;;;;6223778;28;20290;-61
2022/03/08 11:40:24;;;;;;;5.53;3.37;;;9.30;31.80;;;;;;6267389;28;20207;-60
2022/03/08 11:43:46;;;;;;;3.07;2.37;;;9.40;30.20;;;;;;6242115;28;20294;-62
2022/03/08 11:47:09;;;;;;;3.40;2.40;;;9.10;29.20;;;;;;6244695;28;20227;-61
2022/03/08 11:50:39;;;;;;;5.07;2.90;;;8.60;29.70;;;;;;6227948;28;20187;-61
2022/03/08 11:53:41;;;;;;;5.83;2.50;;;8.10;30.00;;;;;;6222018;28;20199;-61
2022/03/08 11:56:47;;;;;;;2.60;2.40;;;7.90;30.20;;;;;;6238856;28;20182;-61
2022/03/08 12:00:16;;;;;;;5.50;3.00;;;7.70;30.50;;;;;;6231092;28;20221;-61
2022/03/08 12:03:18;;;;;;;4.10;2.40;;;7.70;30.00;;;;;;6244782;28;20190;-61
2022/03/08 12:06:33;;;;;;;3.57;2.47;;;7.80;30.50;;;;;;6234370;28;20276;-61
2022/03/08 12:09:35;;;;;;;2.70;2.47;;;8.10;31.30;;;;;;6226442;28;20179;-61
2022/03/08 12:12:41;;;;;;;3.70;2.67;;;8.50;31.10;;;;;;6239589;28;20262;-61
2022/03/08 12:16:05;;;;;;;3.87;2.30;;;8.80;29.20;;;;;;6242683;28;20198;-61
2022/03/08 12:19:07;;;;;;;3.70;2.73;;;8.80;28.60;;;;;;6227433;28;20226;-61
2022/03/08 12:22:15;;;;;;;2.67;2.23;;;9.30;29.70;;;;;;6237160;28;20361;-61
2022/03/08 12:25:16;;;;;;;3.33;2.33;;;9.70;28.90;;;;;;6235852;28;20187;-61
2022/03/08 12:28:17;;;;;;;4.30;2.40;;;10.30;26.80;;;;;;6216693;28;20198;-61
2022/03/08 12:31:18;;;;;;;3.60;2.33;;;10.80;27.10;;;;;;6233629;28;20201;-61
2022/03/08 12:34:19;;;;;;;5.03;2.80;;;12.00;26.60;;;;;;6232945;28;20194;-60
2022/03/08 12:37:22;;;;;;;4.47;2.37;;;13.30;24.90;;;;;;6209275;28;20209;-61
2022/03/08 12:40:30;;;;;;;2.40;2.07;;;14.90;22.20;;;;;;6234570;28;20242;-62
2022/03/08 12:43:31;;;;;;;2.50;2.30;;;17.40;19.50;;;;;;6226216;28;20282;-62
2022/03/08 12:46:34;;;;;;;2.63;2.13;;;17.20;19.70;;;;;;6228662;28;20190;-62
2022/03/08 12:49:35;;;;;;;3.53;2.87;;;16.50;20.00;;;;;;6222720;28;20283;-61
2022/03/08 12:52:46;;;;;;;3.13;2.83;;;14.10;22.10;;;;;;6234522;28;20196;-60
2022/03/08 12:55:51;;;;;;;2.90;2.60;;;13.80;23.50;;;;;;6222891;28;20211;-61
2022/03/08 12:59:03;;;;;;;2.97;2.37;;;16.10;21.10;;;;;;6225581;28;20218;-61
2022/03/08 13:02:11;;;;;;;3.40;2.60;;;19.40;18.70;;;;;;6243096;28;20270;-59
2022/03/08 13:05:12;;;;;;;2.60;2.40;;;22.10;16.50;;;;;;6234006;28;20274;-59
2022/03/08 13:08:16;;;;;;;2.70;2.43;;;21.90;15.40;;;;;;6243096;28;20225;-60
2022/03/08 13:11:18;;;;;;;3.03;2.70;;;23.30;14.50;;;;;;6248366;28;20250;-60
2022/03/08 13:14:21;;;;;;;2.63;2.17;;;22.90;15.00;;;;;;6233405;28;20226;-60
2022/03/08 13:17:29;;;;;;;6.00;2.70;;;24.20;14.60;;;;;;6228366;28;20269;-60
2022/03/08 13:20:33;;;;;;;3.13;2.50;;;23.30;14.90;;;;;;6235786;28;20242;-60
2022/03/08 13:23:35;;;;;;;2.33;2.13;;;22.70;15.20;;;;;;6251226;28;20201;-61
2022/03/08 13:26:53;;;;;;;2.77;2.50;;;22.50;16.30;;;;;;6239076;28;20199;-60
2022/03/08 13:30:15;;;;;;;3.93;2.60;;;22.80;16.10;;;;;;6246596;28;20192;-60
2022/03/08 13:33:26;;;;;;;4.27;2.67;;;24.30;14.60;;;;;;6245789;28;20226;-60
2022/03/08 13:36:27;;;;;;;2.93;2.43;;;25.90;13.20;;;;;;6230414;28;20202;-60
2022/03/08 13:39:28;;;;;;;3.60;2.20;;;25.90;13.20;;;;;;6229637;28;20210;-60
2022/03/08 13:42:31;;;;;;;3.23;2.70;;;26.60;13.00;;;;;;6233183;28;20190;-60
2022/03/08 13:45:32;;;;;;;2.50;2.10;;;27.30;12.60;;;;;;6231555;28;20217;-60
2022/03/08 13:48:37;;;;;;;3.50;2.20;;;27.60;12.40;;;;;;6231945;28;20209;-60
2022/03/08 13:51:39;;;;;;;2.03;1.80;;;27.80;11.40;;;;;;6239495;28;20187;-60
2022/03/08 13:54:41;;;;;;;2.33;2.13;;;27.50;12.20;;;;;;6231745;28;20214;-60
2022/03/08 13:58:20;;;;;;;5.20;2.53;;;28.10;12.10;;;;;;6248383;28;20191;-61
2022/03/08 14:01:25;;;;;;;3.00;2.37;;;29.40;10.70;;;;;;6245358;28;20203;-59
2022/03/08 14:04:26;;;;;;;3.03;2.13;;;29.50;11.20;;;;;;6234862;28;20767;-60
2022/03/08 14:07:27;;;;;;;2.40;2.20;;;29.90;10.60;;;;;;6251257;28;20202;-60
2022/03/08 14:10:29;;;;;;;2.77;2.27;;;29.20;10.70;;;;;;6253779;28;20197;-60
2022/03/08 14:13:33;;;;;;;3.73;2.23;;;30.40;10.50;;;;;;6233955;28;20198;-60
2022/03/08 14:16:37;;;;;;;2.60;2.40;;;29.60;10.80;;;;;;6222776;28;20191;-60
2022/03/08 14:19:47;;;;;;;3.30;2.30;;;27.80;11.40;;;;;;6250527;28;20267;-60
2022/03/08 14:23:03;;;;;;;2.67;2.47;;;25.80;12.10;;;;;;6260903;28;20198;-60
2022/03/08 14:26:05;;;;;;;2.90;2.70;;;26.60;12.50;;;;;;6252238;28;20192;-60
2022/03/08 14:29:15;;;;;;;3.23;2.90;;;25.90;12.40;;;;;;6251866;28;20205;-60
2022/03/08 14:32:16;;;;;;;2.87;2.40;;;26.20;12.60;;;;;;6248191;28;20273;-60
2022/03/08 14:35:19;;;;;;;3.47;2.93;;;25.40;12.40;;;;;;6236161;28;20200;-60
2022/03/08 14:38:20;;;;;;;5.10;3.00;;;25.10;12.50;;;;;;6263780;28;20191;-60
2022/03/08 14:41:25;;;;;;;2.97;2.60;;;25.70;12.40;;;;;;6265024;28;20292;-63
2022/03/08 14:44:28;;;;;;;3.03;2.73;;;27.00;12.10;;;;;;6270826;28;20217;-62
2022/03/08 14:47:33;;;;;;;2.73;2.43;;;28.70;10.80;;;;;;6240610;28;20222;-62
2022/03/08 14:50:34;;;;;;;3.33;2.87;;;27.10;11.30;;;;;;6235309;28;20207;-61
2022/03/08 14:53:35;;;;;;;2.60;2.40;;;26.60;12.00;;;;;;6242112;28;20198;-59
2022/03/08 14:56:37;;;;;;;2.47;2.20;;;25.70;12.60;;;;;;6231331;28;20222;-61
2022/03/08 14:59:38;;;;;;;2.83;2.53;;;26.70;11.80;;;;;;6245712;28;20689;-61
2022/03/08 15:02:39;;;;;;;3.57;2.37;;;27.00;11.30;;;;;;6238254;28;20195;-61
2022/03/08 15:05:41;;;;;;;2.90;2.37;;;26.00;11.90;;;;;;6271561;28;20194;-61
2022/03/08 15:08:42;;;;;;;2.57;2.37;;;27.20;11.80;;;;;;6251402;28;20199;-61
2022/03/08 15:11:43;;;;;;;4.30;2.57;;;27.50;11.30;;;;;;6247668;28;20193;-61
2022/03/08 15:14:43;;;;;;;3.97;2.30;;;27.40;11.20;;;;;;6269737;28;20199;-61
2022/03/08 15:17:44;;;;;;;2.07;1.87;;;27.60;11.20;;;;;;6224084;28;20246;-61
2022/03/08 15:20:45;;;;;;;2.83;2.13;;;27.00;11.40;;;;;;6241665;28;20240;-61
2022/03/08 15:23:47;;;;;;;2.83;2.30;;;25.20;12.30;;;;;;6235258;28;20187;-62
2022/03/08 15:26:48;;;;;;;3.80;3.10;;;24.50;12.90;;;;;;6232030;28;20198;-61
2022/03/08 15:29:48;;;;;;;3.80;2.70;;;23.80;13.10;;;;;;6229308;28;20245;-61
2022/03/08 15:32:49;;;;;;;2.83;2.63;;;23.00;13.80;;;;;;6242550;28;20198;-61
2022/03/08 15:35:50;;;;;;;2.00;1.90;;;22.20;14.90;;;;;;6225270;28;20305;-61
2022/03/08 15:38:54;;;;;;;2.17;1.97;;;23.70;13.70;;;;;;6268469;28;20214;-61
2022/03/08 15:41:54;;;;;;;2.43;1.93;;;23.80;13.30;;;;;;6251031;28;20244;-61
2022/03/08 15:44:55;;;;;;;2.73;2.00;;;21.70;14.60;;;;;;6226881;28;20190;-62
2022/03/08 15:47:56;;;;;;;2.77;2.30;;;21.00;15.20;;;;;;6220273;28;20206;-62
2022/03/08 15:50:57;;;;;;;4.03;2.03;;;20.60;15.10;;;;;;6231251;28;20226;-62
2022/03/08 15:53:58;;;;;;;2.43;2.20;;;19.80;15.70;;;;;;6249466;28;20226;-62